Monroe, WI

6:35 PM CST on December 02, 2016 (GMT -0600)
Monroe Municipal | | Change Station

Elev 1086 ft 42.62 °N, 89.59 °W | Updated 20 minutes ago

Overcast
Overcast
32 °F
Feels Like 25 °F
N
8
Wind Variable Wind from WNW

Today
High -- | Low -- °F
--% Chance of Precip.
Yesterday
High -- | Low -- °F
Precip. -- in
Pressure 30.26 in
Visibility 10.0 miles
Clouds Overcast 2300 ft
Windchill 25 °F
Dew Point 25 °F
Humidity 75%
Rainfall 0.00 in
Snow Depth Not available.
7:10 AM 4:25 PM
Waxing Crescent, 11% visible
METAR KEFT 030015Z AUTO 29007KT 10SM OVC023 00/M04 A3026 RMK AO2
Pressure 30.26 in
Visibility 10.0 miles
Clouds Overcast 2300 ft
Windchill 25 °F
Dew Point 25 °F
Humidity 75%
Rainfall 0.00 in
Snow Depth Not available.
7:10 AM 4:25 PM
Waxing Crescent, 11% visible
METAR KEFT 030015Z AUTO 29007KT 10SM OVC023 00/M04 A3026 RMK AO2

10-Day Weather Forecast

Almanac

Astronomy

Dec. 02, 2016 Rise Set
Actual Time
Civil Twilight
Nautical Twilight
Astronomical Twilight
Moon
Length of Visible Light
Length of Day
Tomorrow will be .
, % of the Moon is Illuminated

Today's Extremes

State Highs State Lows

Community

WunderPhotos

Upload Photos

1,955,381 photos uploaded!

WunderBlog® & News

Nearby

Air Quality

  Air Quality AQ Index Pollutant
Not available.

Snow Depth

Station Depth Elevation

Earthquake Activity

City Distance Mag. Time & Date
Minimum magnitude displayed is 2.5.

Coastal Water Temperatures

Place Temperature

Stations

Nearby Weather Stations

Station Location Temp. Windchill Dew Point Humidity Wind Precip. Elev Updated Type
                   

Watches & Warnings

There are currently no watches in effect.